sensor_id;sensor_type;location;lat;lon;timestamp;P1;durP1;ratioP1;P2;durP2;ratioP2
14235;SDS011;7202;50.718;7.072;2023-08-21T00:00:13;13.05;;;10.80;;
14235;SDS011;7202;50.718;7.072;2023-08-21T00:02:42;11.32;;;10.23;;
14235;SDS011;7202;50.718;7.072;2023-08-21T00:05:11;11.27;;;10.27;;
14235;SDS011;7202;50.718;7.072;2023-08-21T00:07:39;12.02;;;10.50;;
14235;SDS011;7202;50.718;7.072;2023-08-21T00:10:08;12.45;;;11.00;;
14235;SDS011;7202;50.718;7.072;2023-08-21T00:12:41;12.25;;;10.93;;
14235;SDS011;7202;50.718;7.072;2023-08-21T00:15:09;12.25;;;11.05;;
14235;SDS011;7202;50.718;7.072;2023-08-21T00:17:38;12.30;;;11.10;;
14235;SDS011;7202;50.718;7.072;2023-08-21T00:20:07;12.15;;;10.98;;
14235;SDS011;7202;50.718;7.072;2023-08-21T00:22:37;13.63;;;10.80;;
14235;SDS011;7202;50.718;7.072;2023-08-21T00:25:06;11.68;;;10.10;;
14235;SDS011;7202;50.718;7.072;2023-08-21T00:27:35;12.02;;;10.82;;
14235;SDS011;7202;50.718;7.072;2023-08-21T00:30:05;11.27;;;10.15;;
14235;SDS011;7202;50.718;7.072;2023-08-21T00:32:35;13.48;;;10.68;;
14235;SDS011;7202;50.718;7.072;2023-08-21T00:35:04;13.18;;;10.52;;
14235;SDS011;7202;50.718;7.072;2023-08-21T00:37:33;11.18;;;10.18;;
14235;SDS011;7202;50.718;7.072;2023-08-21T00:40:02;16.30;;;10.98;;
14235;SDS011;7202;50.718;7.072;2023-08-21T00:42:32;10.20;;;9.30;;
14235;SDS011;7202;50.718;7.072;2023-08-21T00:45:01;11.38;;;10.15;;
14235;SDS011;7202;50.718;7.072;2023-08-21T00:47:31;11.02;;;9.93;;
14235;SDS011;7202;50.718;7.072;2023-08-21T00:50:00;12.90;;;11.07;;
14235;SDS011;7202;50.718;7.072;2023-08-21T00:52:30;11.45;;;10.35;;
14235;SDS011;7202;50.718;7.072;2023-08-21T00:54:59;11.52;;;10.32;;
14235;SDS011;7202;50.718;7.072;2023-08-21T00:57:29;12.75;;;10.82;;
14235;SDS011;7202;50.718;7.072;2023-08-21T00:59:59;10.98;;;9.57;;
14235;SDS011;7202;50.718;7.072;2023-08-21T01:02:28;11.20;;;10.05;;
14235;SDS011;7202;50.718;7.072;2023-08-21T01:04:58;11.88;;;10.68;;
14235;SDS011;7202;50.718;7.072;2023-08-21T01:07:28;10.20;;;9.25;;
14235;SDS011;7202;50.718;7.072;2023-08-21T01:09:58;11.10;;;9.93;;
14235;SDS011;7202;50.718;7.072;2023-08-21T01:12:37;15.88;;;10.48;;
14235;SDS011;7202;50.718;7.072;2023-08-21T01:15:13;11.52;;;10.32;;
14235;SDS011;7202;50.718;7.072;2023-08-21T01:17:42;11.30;;;10.20;;
14235;SDS011;7202;50.718;7.072;2023-08-21T01:20:14;11.05;;;10.00;;
14235;SDS011;7202;50.718;7.072;2023-08-21T01:22:44;13.68;;;10.30;;
14235;SDS011;7202;50.718;7.072;2023-08-21T01:25:14;12.73;;;10.50;;
14235;SDS011;7202;50.718;7.072;2023-08-21T01:27:44;10.75;;;9.73;;
14235;SDS011;7202;50.718;7.072;2023-08-21T01:30:15;11.65;;;10.48;;
14235;SDS011;7202;50.718;7.072;2023-08-21T01:32:45;13.50;;;10.40;;
14235;SDS011;7202;50.718;7.072;2023-08-21T01:35:19;11.63;;;10.48;;
14235;SDS011;7202;50.718;7.072;2023-08-21T01:37:49;13.20;;;10.13;;
14235;SDS011;7202;50.718;7.072;2023-08-21T01:40:21;12.77;;;10.25;;
14235;SDS011;7202;50.718;7.072;2023-08-21T01:42:52;11.48;;;10.27;;
14235;SDS011;7202;50.718;7.072;2023-08-21T01:45:21;12.77;;;11.13;;
14235;SDS011;7202;50.718;7.072;2023-08-21T01:47:50;11.38;;;10.38;;
14235;SDS011;7202;50.718;7.072;2023-08-21T01:50:19;12.60;;;10.55;;
14235;SDS011;7202;50.718;7.072;2023-08-21T01:52:48;13.15;;;11.82;;
14235;SDS011;7202;50.718;7.072;2023-08-21T01:55:16;10.82;;;9.93;;
14235;SDS011;7202;50.718;7.072;2023-08-21T01:57:46;11.13;;;9.98;;
14235;SDS011;7202;50.718;7.072;2023-08-21T02:00:15;15.60;;;10.40;;
14235;SDS011;7202;50.718;7.072;2023-08-21T02:02:44;12.45;;;11.15;;
14235;SDS011;7202;50.718;7.072;2023-08-21T02:05:13;11.77;;;10.57;;
14235;SDS011;7202;50.718;7.072;2023-08-21T02:07:41;11.77;;;10.52;;
14235;SDS011;7202;50.718;7.072;2023-08-21T02:10:10;12.35;;;10.68;;
14235;SDS011;7202;50.718;7.072;2023-08-21T02:12:39;11.02;;;10.02;;
14235;SDS011;7202;50.718;7.072;2023-08-21T02:15:10;13.50;;;11.43;;
14235;SDS011;7202;50.718;7.072;2023-08-21T02:17:40;12.18;;;10.93;;
14235;SDS011;7202;50.718;7.072;2023-08-21T02:20:12;10.80;;;9.90;;
14235;SDS011;7202;50.718;7.072;2023-08-21T02:22:41;12.13;;;10.38;;
14235;SDS011;7202;50.718;7.072;2023-08-21T02:25:09;13.93;;;10.63;;
14235;SDS011;7202;50.718;7.072;2023-08-21T02:27:38;11.25;;;10.20;;
14235;SDS011;7202;50.718;7.072;2023-08-21T02:30:07;11.95;;;10.75;;
14235;SDS011;7202;50.718;7.072;2023-08-21T02:32:37;11.95;;;10.75;;
14235;SDS011;7202;50.718;7.072;2023-08-21T02:35:07;13.63;;;10.27;;
14235;SDS011;7202;50.718;7.072;2023-08-21T02:37:36;12.40;;;10.20;;
14235;SDS011;7202;50.718;7.072;2023-08-21T02:40:06;11.88;;;10.68;;
14235;SDS011;7202;50.718;7.072;2023-08-21T02:42:36;11.95;;;10.43;;
14235;SDS011;7202;50.718;7.072;2023-08-21T02:45:06;12.05;;;10.95;;
14235;SDS011;7202;50.718;7.072;2023-08-21T02:47:36;12.20;;;11.00;;
14235;SDS011;7202;50.718;7.072;2023-08-21T02:50:07;11.15;;;10.15;;
14235;SDS011;7202;50.718;7.072;2023-08-21T02:52:37;12.23;;;10.93;;
14235;SDS011;7202;50.718;7.072;2023-08-21T02:55:07;11.82;;;10.63;;
14235;SDS011;7202;50.718;7.072;2023-08-21T02:57:36;14.05;;;10.23;;
14235;SDS011;7202;50.718;7.072;2023-08-21T03:00:05;11.73;;;10.52;;
14235;SDS011;7202;50.718;7.072;2023-08-21T03:02:35;12.43;;;10.23;;
14235;SDS011;7202;50.718;7.072;2023-08-21T03:05:06;12.05;;;10.95;;
14235;SDS011;7202;50.718;7.072;2023-08-21T03:07:36;15.20;;;11.35;;
14235;SDS011;7202;50.718;7.072;2023-08-21T03:10:05;13.50;;;10.27;;
14235;SDS011;7202;50.718;7.072;2023-08-21T03:12:35;11.68;;;10.50;;
14235;SDS011;7202;50.718;7.072;2023-08-21T03:15:04;11.45;;;10.45;;
14235;SDS011;7202;50.718;7.072;2023-08-21T03:17:34;12.43;;;11.13;;
14235;SDS011;7202;50.718;7.072;2023-08-21T03:20:03;12.57;;;11.05;;
14235;SDS011;7202;50.718;7.072;2023-08-21T03:22:35;14.45;;;11.90;;
14235;SDS011;7202;50.718;7.072;2023-08-21T03:25:04;13.48;;;11.13;;
14235;SDS011;7202;50.718;7.072;2023-08-21T03:27:33;11.82;;;10.65;;
14235;SDS011;7202;50.718;7.072;2023-08-21T03:30:07;12.88;;;10.57;;
14235;SDS011;7202;50.718;7.072;2023-08-21T03:32:37;13.10;;;10.70;;
14235;SDS011;7202;50.718;7.072;2023-08-21T03:35:07;10.68;;;9.77;;
14235;SDS011;7202;50.718;7.072;2023-08-21T03:37:36;12.65;;;10.15;;
14235;SDS011;7202;50.718;7.072;2023-08-21T03:40:07;14.38;;;10.73;;
14235;SDS011;7202;50.718;7.072;2023-08-21T03:42:36;11.35;;;10.23;;
14235;SDS011;7202;50.718;7.072;2023-08-21T03:45:06;14.60;;;10.85;;
14235;SDS011;7202;50.718;7.072;2023-08-21T03:47:35;13.23;;;11.23;;
14235;SDS011;7202;50.718;7.072;2023-08-21T03:50:11;12.05;;;10.57;;
14235;SDS011;7202;50.718;7.072;2023-08-21T03:52:40;12.98;;;10.77;;
14235;SDS011;7202;50.718;7.072;2023-08-21T03:55:09;11.73;;;10.55;;
14235;SDS011;7202;50.718;7.072;2023-08-21T03:57:37;12.18;;;10.93;;
14235;SDS011;7202;50.718;7.072;2023-08-21T04:00:07;11.93;;;10.82;;
14235;SDS011;7202;50.718;7.072;2023-08-21T04:02:42;12.57;;;11.38;;
14235;SDS011;7202;50.718;7.072;2023-08-21T04:05:12;13.18;;;11.75;;
14235;SDS011;7202;50.718;7.072;2023-08-21T04:07:41;12.13;;;10.80;;
14235;SDS011;7202;50.718;7.072;2023-08-21T04:10:10;12.50;;;10.98;;
14235;SDS011;7202;50.718;7.072;2023-08-21T04:12:38;14.25;;;11.35;;
14235;SDS011;7202;50.718;7.072;2023-08-21T04:15:08;13.13;;;11.75;;
14235;SDS011;7202;50.718;7.072;2023-08-21T04:17:38;12.30;;;11.23;;
14235;SDS011;7202;50.718;7.072;2023-08-21T04:20:07;13.38;;;12.07;;
14235;SDS011;7202;50.718;7.072;2023-08-21T04:22:37;14.80;;;12.25;;
14235;SDS011;7202;50.718;7.072;2023-08-21T04:25:07;14.82;;;11.90;;
14235;SDS011;7202;50.718;7.072;2023-08-21T04:27:36;14.00;;;11.88;;
14235;SDS011;7202;50.718;7.072;2023-08-21T04:30:05;12.93;;;11.63;;
14235;SDS011;7202;50.718;7.072;2023-08-21T04:32:35;13.02;;;11.43;;
14235;SDS011;7202;50.718;7.072;2023-08-21T04:35:04;14.98;;;11.90;;
14235;SDS011;7202;50.718;7.072;2023-08-21T04:37:39;13.18;;;11.02;;
14235;SDS011;7202;50.718;7.072;2023-08-21T04:40:13;12.52;;;11.43;;
14235;SDS011;7202;50.718;7.072;2023-08-21T04:42:42;12.88;;;11.57;;
14235;SDS011;7202;50.718;7.072;2023-08-21T04:45:11;12.90;;;11.70;;
14235;SDS011;7202;50.718;7.072;2023-08-21T04:47:40;13.73;;;11.77;;
14235;SDS011;7202;50.718;7.072;2023-08-21T04:50:09;12.77;;;11.50;;
14235;SDS011;7202;50.718;7.072;2023-08-21T04:52:41;13.15;;;11.48;;
14235;SDS011;7202;50.718;7.072;2023-08-21T04:55:10;13.73;;;12.50;;
14235;SDS011;7202;50.718;7.072;2023-08-21T04:57:38;15.05;;;12.63;;
14235;SDS011;7202;50.718;7.072;2023-08-21T05:00:10;13.48;;;12.18;;
14235;SDS011;7202;50.718;7.072;2023-08-21T05:02:41;14.15;;;12.82;;
14235;SDS011;7202;50.718;7.072;2023-08-21T05:05:11;14.32;;;12.95;;
14235;SDS011;7202;50.718;7.072;2023-08-21T05:07:41;14.60;;;13.02;;
14235;SDS011;7202;50.718;7.072;2023-08-21T05:10:10;14.02;;;12.55;;
14235;SDS011;7202;50.718;7.072;2023-08-21T05:12:39;13.57;;;12.18;;
14235;SDS011;7202;50.718;7.072;2023-08-21T05:15:09;18.23;;;12.50;;
14235;SDS011;7202;50.718;7.072;2023-08-21T05:17:38;14.52;;;13.00;;
14235;SDS011;7202;50.718;7.072;2023-08-21T05:20:07;14.85;;;13.43;;
14235;SDS011;7202;50.718;7.072;2023-08-21T05:22:42;14.82;;;13.50;;
14235;SDS011;7202;50.718;7.072;2023-08-21T05:25:11;17.08;;;13.35;;
14235;SDS011;7202;50.718;7.072;2023-08-21T05:27:40;14.35;;;12.90;;
14235;SDS011;7202;50.718;7.072;2023-08-21T05:30:09;15.55;;;12.73;;
14235;SDS011;7202;50.718;7.072;2023-08-21T05:32:39;14.18;;;12.82;;
14235;SDS011;7202;50.718;7.072;2023-08-21T05:35:08;16.13;;;12.98;;
14235;SDS011;7202;50.718;7.072;2023-08-21T05:37:37;14.05;;;12.45;;
14235;SDS011;7202;50.718;7.072;2023-08-21T05:40:08;14.25;;;12.88;;
14235;SDS011;7202;50.718;7.072;2023-08-21T05:42:37;13.65;;;12.35;;
14235;SDS011;7202;50.718;7.072;2023-08-21T05:45:07;14.82;;;13.32;;
14235;SDS011;7202;50.718;7.072;2023-08-21T05:47:37;14.25;;;12.80;;
14235;SDS011;7202;50.718;7.072;2023-08-21T05:50:06;14.40;;;12.90;;
14235;SDS011;7202;50.718;7.072;2023-08-21T05:52:35;13.68;;;12.18;;
14235;SDS011;7202;50.718;7.072;2023-08-21T05:55:10;13.73;;;12.38;;
14235;SDS011;7202;50.718;7.072;2023-08-21T05:57:39;13.98;;;12.32;;
14235;SDS011;7202;50.718;7.072;2023-08-21T06:00:08;13.85;;;11.98;;
14235;SDS011;7202;50.718;7.072;2023-08-21T06:02:43;13.38;;;11.98;;
14235;SDS011;7202;50.718;7.072;2023-08-21T06:05:29;12.55;;;11.35;;
14235;SDS011;7202;50.718;7.072;2023-08-21T06:07:58;13.52;;;12.05;;
14235;SDS011;7202;50.718;7.072;2023-08-21T06:10:28;16.15;;;11.63;;
14235;SDS011;7202;50.718;7.072;2023-08-21T06:12:59;12.98;;;11.73;;
14235;SDS011;7202;50.718;7.072;2023-08-21T06:15:27;14.30;;;11.23;;
14235;SDS011;7202;50.718;7.072;2023-08-21T06:17:57;12.50;;;11.13;;
14235;SDS011;7202;50.718;7.072;2023-08-21T06:20:26;12.15;;;10.70;;
14235;SDS011;7202;50.718;7.072;2023-08-21T06:22:55;12.18;;;10.85;;
14235;SDS011;7202;50.718;7.072;2023-08-21T06:25:24;14.05;;;11.45;;
14235;SDS011;7202;50.718;7.072;2023-08-21T06:27:54;11.68;;;10.48;;
14235;SDS011;7202;50.718;7.072;2023-08-21T06:30:25;10.73;;;9.73;;
14235;SDS011;7202;50.718;7.072;2023-08-21T06:32:54;13.55;;;12.02;;
14235;SDS011;7202;50.718;7.072;2023-08-21T06:35:26;11.82;;;10.63;;
14235;SDS011;7202;50.718;7.072;2023-08-21T06:37:55;11.30;;;10.25;;
14235;SDS011;7202;50.718;7.072;2023-08-21T06:40:24;12.68;;;11.45;;
14235;SDS011;7202;50.718;7.072;2023-08-21T06:42:54;12.73;;;11.27;;
14235;SDS011;7202;50.718;7.072;2023-08-21T06:45:26;12.40;;;11.10;;
14235;SDS011;7202;50.718;7.072;2023-08-21T06:47:58;14.32;;;11.63;;
14235;SDS011;7202;50.718;7.072;2023-08-21T06:50:27;15.25;;;11.27;;
14235;SDS011;7202;50.718;7.072;2023-08-21T06:52:55;11.45;;;10.25;;
14235;SDS011;7202;50.718;7.072;2023-08-21T06:55:24;15.85;;;11.90;;
14235;SDS011;7202;50.718;7.072;2023-08-21T06:57:54;16.52;;;12.05;;
14235;SDS011;7202;50.718;7.072;2023-08-21T07:00:23;11.02;;;10.00;;
14235;SDS011;7202;50.718;7.072;2023-08-21T07:02:52;14.93;;;11.77;;
14235;SDS011;7202;50.718;7.072;2023-08-21T07:05:21;11.52;;;10.35;;
14235;SDS011;7202;50.718;7.072;2023-08-21T07:07:50;13.18;;;11.20;;
14235;SDS011;7202;50.718;7.072;2023-08-21T07:10:20;12.48;;;11.27;;
14235;SDS011;7202;50.718;7.072;2023-08-21T07:12:49;12.77;;;10.82;;
14235;SDS011;7202;50.718;7.072;2023-08-21T07:15:18;13.90;;;11.30;;
14235;SDS011;7202;50.718;7.072;2023-08-21T07:17:47;11.23;;;10.07;;
14235;SDS011;7202;50.718;7.072;2023-08-21T07:20:16;12.90;;;10.38;;
14235;SDS011;7202;50.718;7.072;2023-08-21T07:22:44;11.40;;;10.30;;
14235;SDS011;7202;50.718;7.072;2023-08-21T07:25:13;12.65;;;10.63;;
14235;SDS011;7202;50.718;7.072;2023-08-21T07:27:42;13.23;;;11.68;;
14235;SDS011;7202;50.718;7.072;2023-08-21T07:30:10;11.85;;;10.70;;
14235;SDS011;7202;50.718;7.072;2023-08-21T07:32:41;13.73;;;10.05;;
14235;SDS011;7202;50.718;7.072;2023-08-21T07:35:09;14.57;;;11.07;;
14235;SDS011;7202;50.718;7.072;2023-08-21T07:37:38;12.65;;;11.40;;
14235;SDS011;7202;50.718;7.072;2023-08-21T07:40:08;11.82;;;10.57;;
14235;SDS011;7202;50.718;7.072;2023-08-21T07:42:36;10.85;;;9.68;;
14235;SDS011;7202;50.718;7.072;2023-08-21T07:45:06;14.43;;;11.90;;
14235;SDS011;7202;50.718;7.072;2023-08-21T07:47:35;12.25;;;10.55;;
14235;SDS011;7202;50.718;7.072;2023-08-21T07:50:06;11.30;;;10.02;;
14235;SDS011;7202;50.718;7.072;2023-08-21T07:52:35;10.63;;;9.63;;
14235;SDS011;7202;50.718;7.072;2023-08-21T07:55:05;14.32;;;10.57;;
14235;SDS011;7202;50.718;7.072;2023-08-21T07:57:34;11.90;;;10.75;;
14235;SDS011;7202;50.718;7.072;2023-08-21T08:00:04;12.38;;;11.05;;
14235;SDS011;7202;50.718;7.072;2023-08-21T08:02:39;17.88;;;11.73;;
14235;SDS011;7202;50.718;7.072;2023-08-21T08:05:11;11.30;;;9.85;;
14235;SDS011;7202;50.718;7.072;2023-08-21T08:07:40;10.45;;;9.13;;
14235;SDS011;7202;50.718;7.072;2023-08-21T08:10:09;10.27;;;9.27;;
14235;SDS011;7202;50.718;7.072;2023-08-21T08:12:40;12.07;;;9.98;;
14235;SDS011;7202;50.718;7.072;2023-08-21T08:15:12;14.13;;;9.63;;
14235;SDS011;7202;50.718;7.072;2023-08-21T08:17:40;12.75;;;9.63;;
14235;SDS011;7202;50.718;7.072;2023-08-21T08:20:09;14.68;;;9.98;;
14235;SDS011;7202;50.718;7.072;2023-08-21T08:22:41;10.82;;;8.75;;
14235;SDS011;7202;50.718;7.072;2023-08-21T08:25:10;12.13;;;8.63;;
14235;SDS011;7202;50.718;7.072;2023-08-21T08:27:39;12.43;;;9.18;;
14235;SDS011;7202;50.718;7.072;2023-08-21T08:30:08;11.48;;;9.95;;
14235;SDS011;7202;50.718;7.072;2023-08-21T08:32:37;10.77;;;9.55;;
14235;SDS011;7202;50.718;7.072;2023-08-21T08:35:12;12.35;;;9.68;;
14235;SDS011;7202;50.718;7.072;2023-08-21T08:37:41;10.98;;;9.07;;
14235;SDS011;7202;50.718;7.072;2023-08-21T08:40:10;12.57;;;10.38;;
14235;SDS011;7202;50.718;7.072;2023-08-21T08:42:39;10.82;;;8.57;;
14235;SDS011;7202;50.718;7.072;2023-08-21T08:45:09;11.32;;;8.40;;
14235;SDS011;7202;50.718;7.072;2023-08-21T08:47:40;9.95;;;8.15;;
14235;SDS011;7202;50.718;7.072;2023-08-21T08:50:09;9.20;;;8.30;;
14235;SDS011;7202;50.718;7.072;2023-08-21T08:52:40;10.55;;;8.07;;
14235;SDS011;7202;50.718;7.072;2023-08-21T08:55:09;8.35;;;7.28;;
14235;SDS011;7202;50.718;7.072;2023-08-21T08:57:38;11.10;;;8.35;;
14235;SDS011;7202;50.718;7.072;2023-08-21T09:00:07;9.88;;;8.88;;
14235;SDS011;7202;50.718;7.072;2023-08-21T09:02:36;11.50;;;7.53;;
14235;SDS011;7202;50.718;7.072;2023-08-21T09:05:06;10.93;;;8.40;;
14235;SDS011;7202;50.718;7.072;2023-08-21T09:07:36;10.65;;;7.72;;
14235;SDS011;7202;50.718;7.072;2023-08-21T09:10:08;10.00;;;8.20;;
14235;SDS011;7202;50.718;7.072;2023-08-21T09:12:41;10.43;;;8.30;;
14235;SDS011;7202;50.718;7.072;2023-08-21T09:15:13;10.10;;;8.65;;
14235;SDS011;7202;50.718;7.072;2023-08-21T09:17:41;9.35;;;8.35;;
14235;SDS011;7202;50.718;7.072;2023-08-21T09:20:11;9.02;;;8.20;;
14235;SDS011;7202;50.718;7.072;2023-08-21T09:22:39;9.00;;;8.10;;
14235;SDS011;7202;50.718;7.072;2023-08-21T09:25:09;12.27;;;8.45;;
14235;SDS011;7202;50.718;7.072;2023-08-21T09:27:38;9.57;;;7.63;;
14235;SDS011;7202;50.718;7.072;2023-08-21T09:30:08;11.00;;;7.30;;
14235;SDS011;7202;50.718;7.072;2023-08-21T09:35:27;7.85;;;7.15;;
14235;SDS011;7202;50.718;7.072;2023-08-21T09:37:56;10.40;;;7.40;;
14235;SDS011;7202;50.718;7.072;2023-08-21T09:40:26;9.07;;;7.97;;
14235;SDS011;7202;50.718;7.072;2023-08-21T09:42:55;9.98;;;8.52;;
14235;SDS011;7202;50.718;7.072;2023-08-21T09:45:24;9.48;;;8.40;;
14235;SDS011;7202;50.718;7.072;2023-08-21T09:47:53;9.20;;;8.13;;
14235;SDS011;7202;50.718;7.072;2023-08-21T09:50:23;10.30;;;8.10;;
14235;SDS011;7202;50.718;7.072;2023-08-21T09:52:53;12.15;;;8.52;;
14235;SDS011;7202;50.718;7.072;2023-08-21T09:55:21;11.90;;;8.30;;
14235;SDS011;7202;50.718;7.072;2023-08-21T09:57:52;10.68;;;8.05;;
14235;SDS011;7202;50.718;7.072;2023-08-21T10:00:26;9.65;;;8.30;;
14235;SDS011;7202;50.718;7.072;2023-08-21T10:03:00;9.98;;;8.52;;
14235;SDS011;7202;50.718;7.072;2023-08-21T10:05:31;12.55;;;9.32;;
14235;SDS011;7202;50.718;7.072;2023-08-21T10:08:00;11.50;;;8.68;;
14235;SDS011;7202;50.718;7.072;2023-08-21T10:10:31;11.60;;;9.05;;
14235;SDS011;7202;50.718;7.072;2023-08-21T10:13:02;13.30;;;8.60;;
14235;SDS011;7202;50.718;7.072;2023-08-21T10:15:31;16.63;;;8.88;;
14235;SDS011;7202;50.718;7.072;2023-08-21T10:20:48;10.23;;;7.97;;
14235;SDS011;7202;50.718;7.072;2023-08-21T10:23:24;11.07;;;7.88;;
14235;SDS011;7202;50.718;7.072;2023-08-21T10:25:54;13.55;;;8.60;;
14235;SDS011;7202;50.718;7.072;2023-08-21T10:28:42;11.38;;;8.18;;
14235;SDS011;7202;50.718;7.072;2023-08-21T10:34:00;9.00;;;7.70;;
14235;SDS011;7202;50.718;7.072;2023-08-21T10:39:32;11.27;;;7.80;;
14235;SDS011;7202;50.718;7.072;2023-08-21T10:42:05;11.63;;;8.00;;
14235;SDS011;7202;50.718;7.072;2023-08-21T10:47:23;8.07;;;7.20;;
14235;SDS011;7202;50.718;7.072;2023-08-21T10:50:00;12.13;;;7.45;;
14235;SDS011;7202;50.718;7.072;2023-08-21T10:52:31;10.90;;;7.57;;
14235;SDS011;7202;50.718;7.072;2023-08-21T10:55:04;9.95;;;7.50;;
14235;SDS011;7202;50.718;7.072;2023-08-21T10:57:33;9.25;;;6.93;;
14235;SDS011;7202;50.718;7.072;2023-08-21T11:00:04;10.13;;;6.75;;
14235;SDS011;7202;50.718;7.072;2023-08-21T11:02:36;7.80;;;7.00;;
14235;SDS011;7202;50.718;7.072;2023-08-21T11:05:07;7.88;;;6.65;;
14235;SDS011;7202;50.718;7.072;2023-08-21T11:07:36;10.88;;;6.85;;
14235;SDS011;7202;50.718;7.072;2023-08-21T11:10:07;9.38;;;6.57;;
14235;SDS011;7202;50.718;7.072;2023-08-21T11:12:38;7.53;;;6.80;;
14235;SDS011;7202;50.718;7.072;2023-08-21T11:15:18;10.60;;;7.55;;
14235;SDS011;7202;50.718;7.072;2023-08-21T11:17:50;9.85;;;5.85;;
14235;SDS011;7202;50.718;7.072;2023-08-21T11:20:21;7.78;;;5.72;;
14235;SDS011;7202;50.718;7.072;2023-08-21T11:22:55;10.27;;;6.20;;
14235;SDS011;7202;50.718;7.072;2023-08-21T11:25:25;12.65;;;7.22;;
14235;SDS011;7202;50.718;7.072;2023-08-21T11:27:54;8.68;;;5.95;;
14235;SDS011;7202;50.718;7.072;2023-08-21T11:30:25;10.75;;;7.45;;
14235;SDS011;7202;50.718;7.072;2023-08-21T11:33:09;8.02;;;6.00;;
14235;SDS011;7202;50.718;7.072;2023-08-21T11:35:40;9.88;;;7.38;;
14235;SDS011;7202;50.718;7.072;2023-08-21T11:38:14;8.23;;;6.97;;
14235;SDS011;7202;50.718;7.072;2023-08-21T11:40:51;7.97;;;6.53;;
14235;SDS011;7202;50.718;7.072;2023-08-21T11:43:33;7.28;;;5.95;;
14235;SDS011;7202;50.718;7.072;2023-08-21T11:46:04;6.25;;;5.65;;
14235;SDS011;7202;50.718;7.072;2023-08-21T11:48:36;8.93;;;6.45;;
14235;SDS011;7202;50.718;7.072;2023-08-21T11:51:06;7.20;;;5.82;;
14235;SDS011;7202;50.718;7.072;2023-08-21T11:53:36;9.13;;;6.38;;
14235;SDS011;7202;50.718;7.072;2023-08-21T11:56:08;9.10;;;6.45;;
14235;SDS011;7202;50.718;7.072;2023-08-21T11:58:37;9.50;;;6.15;;
14235;SDS011;7202;50.718;7.072;2023-08-21T12:01:08;9.65;;;5.45;;
14235;SDS011;7202;50.718;7.072;2023-08-21T12:03:38;7.75;;;5.30;;
14235;SDS011;7202;50.718;7.072;2023-08-21T12:06:08;9.45;;;6.20;;
14235;SDS011;7202;50.718;7.072;2023-08-21T12:08:37;7.70;;;5.50;;
14235;SDS011;7202;50.718;7.072;2023-08-21T12:11:07;7.97;;;5.85;;
14235;SDS011;7202;50.718;7.072;2023-08-21T12:13:35;7.95;;;6.03;;
14235;SDS011;7202;50.718;7.072;2023-08-21T12:16:04;7.40;;;6.15;;
14235;SDS011;7202;50.718;7.072;2023-08-21T12:18:34;8.82;;;6.10;;
14235;SDS011;7202;50.718;7.072;2023-08-21T12:21:03;6.78;;;5.47;;
14235;SDS011;7202;50.718;7.072;2023-08-21T12:23:34;10.15;;;6.25;;
14235;SDS011;7202;50.718;7.072;2023-08-21T12:26:03;9.45;;;5.70;;
14235;SDS011;7202;50.718;7.072;2023-08-21T12:28:31;7.30;;;5.80;;
14235;SDS011;7202;50.718;7.072;2023-08-21T12:31:00;10.07;;;5.68;;
14235;SDS011;7202;50.718;7.072;2023-08-21T12:33:29;8.43;;;5.63;;
14235;SDS011;7202;50.718;7.072;2023-08-21T12:35:58;7.20;;;5.70;;
14235;SDS011;7202;50.718;7.072;2023-08-21T12:38:27;9.27;;;5.55;;
14235;SDS011;7202;50.718;7.072;2023-08-21T12:40:56;9.10;;;5.43;;
14235;SDS011;7202;50.718;7.072;2023-08-21T12:43:25;8.05;;;5.75;;
14235;SDS011;7202;50.718;7.072;2023-08-21T12:45:55;8.35;;;6.10;;
14235;SDS011;7202;50.718;7.072;2023-08-21T12:48:24;9.48;;;6.13;;
14235;SDS011;7202;50.718;7.072;2023-08-21T12:50:52;9.57;;;5.75;;
14235;SDS011;7202;50.718;7.072;2023-08-21T12:53:22;10.77;;;5.97;;
14235;SDS011;7202;50.718;7.072;2023-08-21T12:55:51;7.60;;;6.13;;
14235;SDS011;7202;50.718;7.072;2023-08-21T12:58:20;9.48;;;5.05;;
14235;SDS011;7202;50.718;7.072;2023-08-21T13:00:48;6.85;;;4.85;;
14235;SDS011;7202;50.718;7.072;2023-08-21T13:03:17;10.07;;;5.07;;
14235;SDS011;7202;50.718;7.072;2023-08-21T13:05:47;12.57;;;5.65;;
14235;SDS011;7202;50.718;7.072;2023-08-21T13:08:16;5.82;;;5.10;;
14235;SDS011;7202;50.718;7.072;2023-08-21T13:10:46;5.32;;;4.82;;
14235;SDS011;7202;50.718;7.072;2023-08-21T13:13:14;7.53;;;4.80;;
14235;SDS011;7202;50.718;7.072;2023-08-21T13:15:46;7.22;;;4.63;;
14235;SDS011;7202;50.718;7.072;2023-08-21T13:18:15;6.10;;;4.70;;
14235;SDS011;7202;50.718;7.072;2023-08-21T13:20:43;9.30;;;5.13;;
14235;SDS011;7202;50.718;7.072;2023-08-21T13:23:12;5.68;;;4.88;;
14235;SDS011;7202;50.718;7.072;2023-08-21T13:25:40;6.22;;;4.95;;
14235;SDS011;7202;50.718;7.072;2023-08-21T13:28:11;7.53;;;5.03;;
14235;SDS011;7202;50.718;7.072;2023-08-21T13:30:39;11.25;;;4.78;;
14235;SDS011;7202;50.718;7.072;2023-08-21T13:33:08;8.00;;;4.55;;
14235;SDS011;7202;50.718;7.072;2023-08-21T13:35:37;6.03;;;4.10;;
14235;SDS011;7202;50.718;7.072;2023-08-21T13:38:05;6.95;;;4.65;;
14235;SDS011;7202;50.718;7.072;2023-08-21T13:40:35;5.05;;;4.55;;
14235;SDS011;7202;50.718;7.072;2023-08-21T13:43:04;5.38;;;3.97;;
14235;SDS011;7202;50.718;7.072;2023-08-21T13:45:35;7.78;;;4.18;;
14235;SDS011;7202;50.718;7.072;2023-08-21T13:48:04;5.93;;;3.70;;
14235;SDS011;7202;50.718;7.072;2023-08-21T13:50:34;8.73;;;4.85;;
14235;SDS011;7202;50.718;7.072;2023-08-21T13:53:03;11.18;;;5.60;;
14235;SDS011;7202;50.718;7.072;2023-08-21T13:55:31;7.55;;;4.25;;
14235;SDS011;7202;50.718;7.072;2023-08-21T13:58:00;8.18;;;5.15;;
14235;SDS011;7202;50.718;7.072;2023-08-21T14:00:29;7.32;;;5.43;;
14235;SDS011;7202;50.718;7.072;2023-08-21T14:02:59;7.63;;;5.32;;
14235;SDS011;7202;50.718;7.072;2023-08-21T14:05:28;5.72;;;4.38;;
14235;SDS011;7202;50.718;7.072;2023-08-21T14:07:58;8.93;;;5.25;;
14235;SDS011;7202;50.718;7.072;2023-08-21T14:10:26;10.82;;;4.60;;
14235;SDS011;7202;50.718;7.072;2023-08-21T14:12:57;8.10;;;3.85;;
14235;SDS011;7202;50.718;7.072;2023-08-21T14:15:25;6.95;;;3.88;;
14235;SDS011;7202;50.718;7.072;2023-08-21T14:17:54;5.45;;;3.75;;
14235;SDS011;7202;50.718;7.072;2023-08-21T14:20:24;5.68;;;3.95;;
14235;SDS011;7202;50.718;7.072;2023-08-21T14:22:53;9.48;;;3.80;;
14235;SDS011;7202;50.718;7.072;2023-08-21T14:25:21;8.40;;;3.97;;
14235;SDS011;7202;50.718;7.072;2023-08-21T14:27:50;8.80;;;3.72;;
14235;SDS011;7202;50.718;7.072;2023-08-21T14:30:19;6.65;;;3.95;;
14235;SDS011;7202;50.718;7.072;2023-08-21T14:32:48;8.70;;;3.42;;
14235;SDS011;7202;50.718;7.072;2023-08-21T14:35:17;5.38;;;3.80;;
14235;SDS011;7202;50.718;7.072;2023-08-21T14:37:47;5.03;;;3.65;;
14235;SDS011;7202;50.718;7.072;2023-08-21T14:40:16;7.70;;;3.90;;
14235;SDS011;7202;50.718;7.072;2023-08-21T14:42:44;5.53;;;3.10;;
14235;SDS011;7202;50.718;7.072;2023-08-21T14:45:13;6.40;;;3.30;;
14235;SDS011;7202;50.718;7.072;2023-08-21T14:47:42;5.38;;;3.60;;
14235;SDS011;7202;50.718;7.072;2023-08-21T14:50:10;7.38;;;3.38;;
14235;SDS011;7202;50.718;7.072;2023-08-21T14:52:39;5.05;;;3.53;;
14235;SDS011;7202;50.718;7.072;2023-08-21T14:55:09;6.38;;;3.53;;
14235;SDS011;7202;50.718;7.072;2023-08-21T14:57:38;4.47;;;3.30;;
14235;SDS011;7202;50.718;7.072;2023-08-21T15:00:07;9.75;;;3.65;;
14235;SDS011;7202;50.718;7.072;2023-08-21T15:02:37;6.25;;;3.63;;
14235;SDS011;7202;50.718;7.072;2023-08-21T15:05:06;5.55;;;3.63;;
14235;SDS011;7202;50.718;7.072;2023-08-21T15:07:36;8.73;;;3.53;;
14235;SDS011;7202;50.718;7.072;2023-08-21T15:10:05;7.05;;;3.50;;
14235;SDS011;7202;50.718;7.072;2023-08-21T15:12:36;4.95;;;3.58;;
14235;SDS011;7202;50.718;7.072;2023-08-21T15:15:05;7.38;;;3.65;;